createdAt,value
2023-03-31T00:03:44.875Z,19.27
2023-03-31T00:08:52.541Z,19.28
2023-03-31T00:13:54.964Z,19.26
2023-03-31T00:18:57.134Z,19.27
2023-03-31T00:24:01.488Z,19.26
2023-03-31T00:29:05.761Z,19.20
2023-03-31T00:34:08.066Z,19.26
2023-03-31T00:39:10.158Z,19.25
2023-03-31T00:44:19.335Z,19.24
2023-03-31T00:49:40.734Z,19.27
2023-03-31T00:54:46.014Z,19.25
2023-03-31T00:59:54.095Z,19.26
2023-03-31T01:04:59.920Z,19.25
2023-03-31T01:10:05.455Z,19.27
2023-03-31T01:15:08.223Z,19.28
2023-03-31T01:20:13.116Z,19.23
2023-03-31T01:25:17.927Z,19.24
2023-03-31T01:30:50.760Z,19.26
2023-03-31T01:36:08.948Z,19.27
2023-03-31T01:41:20.252Z,19.26
2023-03-31T01:46:40.867Z,19.26
2023-03-31T01:52:05.110Z,19.26
2023-03-31T01:57:22.814Z,19.26
2023-03-31T02:02:38.085Z,19.27
2023-03-31T02:07:45.552Z,19.24
2023-03-31T02:12:49.805Z,19.26
2023-03-31T02:17:55.885Z,19.25
2023-03-31T02:22:59.203Z,19.27
2023-03-31T02:28:05.061Z,19.29
2023-03-31T02:33:07.450Z,19.25
2023-03-31T02:38:09.752Z,19.27
2023-03-31T02:43:11.779Z,19.26
2023-03-31T02:48:24.079Z,19.22
2023-03-31T02:53:41.575Z,19.26
2023-03-31T02:58:57.744Z,19.25
2023-03-31T03:04:26.020Z,19.25
2023-03-31T03:09:55.633Z,19.23
2023-03-31T03:15:09.038Z,19.19
2023-03-31T03:20:12.817Z,19.23
2023-03-31T03:25:17.687Z,19.27
2023-03-31T03:30:20.259Z,19.25
2023-03-31T03:35:22.433Z,19.23
2023-03-31T03:40:24.292Z,19.23
2023-03-31T03:45:26.584Z,19.24
2023-03-31T03:50:28.566Z,19.25
2023-03-31T03:55:30.486Z,19.28
2023-03-31T04:00:32.702Z,19.27
2023-03-31T04:05:34.763Z,19.24
2023-03-31T04:10:37.022Z,19.24
2023-03-31T04:15:39.176Z,19.23
2023-03-31T04:20:41.296Z,19.21
2023-03-31T04:25:46.861Z,19.22
2023-03-31T04:30:49.374Z,19.25
2023-03-31T04:35:52.902Z,19.27
2023-03-31T04:40:55.051Z,19.24
2023-03-31T04:45:57.208Z,19.23
2023-03-31T04:50:59.375Z,19.22
2023-03-31T04:56:01.631Z,19.24
2023-03-31T05:01:04.230Z,19.24
2023-03-31T05:06:06.599Z,19.26
2023-03-31T05:11:08.757Z,19.26
2023-03-31T05:16:14.938Z,19.25
2023-03-31T05:21:20.296Z,19.21
2023-03-31T05:26:25.517Z,19.23
2023-03-31T05:31:27.739Z,19.25
2023-03-31T05:36:29.956Z,19.25
2023-03-31T05:41:32.284Z,19.26
2023-03-31T05:46:34.260Z,19.25
2023-03-31T05:51:36.289Z,19.20
2023-03-31T05:56:38.298Z,19.25
2023-03-31T06:01:40.371Z,19.23
2023-03-31T06:06:43.295Z,19.23
2023-03-31T06:11:45.422Z,19.25
2023-03-31T06:16:48.658Z,19.23
2023-03-31T06:21:51.445Z,19.22
2023-03-31T06:26:54.173Z,19.25
2023-03-31T06:31:56.403Z,19.26
2023-03-31T06:36:58.452Z,19.22
2023-03-31T06:42:00.361Z,19.24
2023-03-31T06:47:02.209Z,19.26
2023-03-31T06:52:04.432Z,19.28
2023-03-31T06:57:06.710Z,19.29
2023-03-31T07:02:11.233Z,19.27
2023-03-31T07:07:13.497Z,19.27
2023-03-31T07:12:15.452Z,19.26
2023-03-31T07:17:17.433Z,19.29
2023-03-31T07:22:19.549Z,19.30
2023-03-31T07:27:23.591Z,19.35
2023-03-31T07:32:29.009Z,19.38
2023-03-31T07:37:38.803Z,19.38
2023-03-31T07:42:40.928Z,19.47
2023-03-31T07:47:44.025Z,19.50
2023-03-31T07:52:47.317Z,19.57
2023-03-31T07:57:50.517Z,19.61
2023-03-31T08:02:52.539Z,19.62
2023-03-31T08:07:54.701Z,19.55
2023-03-31T08:12:57.111Z,19.50
2023-03-31T08:17:59.162Z,19.50
2023-03-31T08:23:01.311Z,19.52
2023-03-31T08:28:03.355Z,19.50
2023-03-31T08:33:05.303Z,19.52
2023-03-31T08:38:07.562Z,19.50
2023-03-31T08:43:16.057Z,19.49
2023-03-31T08:48:18.087Z,19.50
2023-03-31T08:53:44.180Z,19.48
2023-03-31T08:58:48.558Z,19.46
2023-03-31T09:04:27.727Z,19.36
2023-03-31T09:09:58.952Z,19.36
2023-03-31T09:15:02.904Z,19.41
2023-03-31T09:20:14.150Z,19.47
2023-03-31T09:25:28.034Z,19.45
2023-03-31T09:30:32.864Z,19.53
2023-03-31T09:35:34.980Z,19.58
2023-03-31T09:40:37.246Z,19.52
2023-03-31T09:45:39.437Z,19.53
2023-03-31T09:50:48.013Z,19.52
2023-03-31T09:56:01.246Z,19.50
2023-03-31T10:01:06.923Z,19.48
2023-03-31T10:06:11.671Z,19.53
2023-03-31T10:11:14.720Z,19.50
2023-03-31T10:16:34.872Z,19.48
2023-03-31T10:21:38.939Z,19.48
2023-03-31T10:26:41.444Z,19.48
2023-03-31T10:31:43.561Z,19.46
2023-03-31T10:36:48.602Z,19.46
2023-03-31T10:41:53.122Z,19.44
2023-03-31T10:46:55.183Z,19.50
2023-03-31T10:51:59.386Z,19.52
2023-03-31T10:57:04.871Z,19.56
2023-03-31T11:02:46.916Z,19.53
2023-03-31T11:08:13.496Z,19.53
2023-03-31T11:13:21.854Z,19.54
2023-03-31T11:18:42.259Z,19.51
2023-03-31T11:24:04.414Z,19.44
2023-03-31T11:29:27.156Z,19.49
2023-03-31T11:34:29.864Z,19.51
2023-03-31T11:39:49.604Z,19.53
2023-03-31T11:44:58.419Z,19.54
2023-03-31T11:50:15.217Z,19.56
2023-03-31T11:55:21.896Z,19.55
2023-03-31T12:00:30.437Z,19.54
2023-03-31T12:05:34.329Z,19.53
2023-03-31T12:10:43.619Z,19.53
2023-03-31T12:16:05.036Z,19.26
2023-03-31T12:21:10.319Z,19.25
2023-03-31T12:26:28.488Z,19.24
2023-03-31T12:31:33.621Z,19.16
2023-03-31T12:37:25.153Z,19.15
2023-03-31T12:43:06.211Z,19.16
2023-03-31T12:48:26.875Z,19.53
2023-03-31T12:54:00.812Z,19.53
2023-03-31T12:59:26.187Z,19.51
2023-03-31T13:04:28.266Z,19.50
2023-03-31T13:09:45.016Z,19.50
2023-03-31T13:14:51.997Z,19.54
2023-03-31T13:19:55.724Z,19.55
2023-03-31T13:25:26.937Z,19.49
2023-03-31T13:30:37.501Z,19.46
2023-03-31T13:35:43.009Z,19.55
2023-03-31T13:41:22.181Z,19.56
2023-03-31T13:46:46.033Z,19.59
2023-03-31T13:52:02.438Z,19.49
2023-03-31T13:57:27.655Z,19.48
2023-03-31T14:02:51.096Z,19.42
2023-03-31T14:08:08.138Z,19.59
2023-03-31T14:13:20.496Z,19.62
2023-03-31T14:18:28.516Z,19.69
2023-03-31T14:23:57.171Z,19.52
2023-03-31T14:29:15.231Z,19.43
2023-03-31T14:35:10.636Z,19.39
2023-03-31T14:40:17.064Z,19.40
2023-03-31T14:45:21.026Z,19.42
2023-03-31T14:50:28.866Z,19.40
2023-03-31T14:55:54.354Z,19.38
2023-03-31T15:00:56.550Z,19.38
2023-03-31T15:05:59.931Z,19.40
2023-03-31T15:16:46.575Z,19.39
2023-03-31T15:22:16.739Z,19.41
2023-03-31T15:27:23.492Z,19.47
2023-03-31T15:32:37.543Z,19.45
2023-03-31T15:37:41.958Z,19.44
2023-03-31T15:42:55.031Z,19.44
2023-03-31T15:48:36.488Z,19.43
2023-03-31T15:53:45.171Z,19.34
2023-03-31T15:59:22.468Z,19.21
2023-03-31T16:04:25.184Z,19.22
2023-03-31T16:09:51.216Z,19.22
2023-03-31T16:15:14.442Z,19.27
2023-03-31T16:20:27.489Z,19.28
2023-03-31T16:25:32.123Z,19.29
2023-03-31T16:30:40.182Z,19.33
2023-03-31T16:35:54.192Z,19.38
2023-03-31T16:40:58.217Z,19.33
2023-03-31T16:46:03.708Z,19.35
2023-03-31T16:51:06.538Z,19.36
2023-03-31T16:56:09.106Z,19.38
2023-03-31T17:01:12.238Z,19.37
2023-03-31T17:06:14.244Z,19.40
2023-03-31T17:11:16.544Z,19.35
2023-03-31T17:21:40.498Z,19.36
2023-03-31T17:26:42.500Z,19.37
2023-03-31T17:31:44.966Z,19.28
2023-03-31T17:36:47.721Z,19.35
2023-03-31T17:41:49.913Z,19.40
2023-03-31T17:46:52.341Z,19.40
2023-03-31T17:51:54.702Z,19.38
2023-03-31T17:56:57.103Z,19.42
2023-03-31T18:01:59.552Z,19.38
2023-03-31T18:07:01.704Z,19.41
2023-03-31T18:12:04.427Z,19.38
2023-03-31T18:17:06.547Z,19.37
2023-03-31T18:22:09.343Z,19.39
2023-03-31T18:27:11.349Z,19.40
2023-03-31T18:32:14.111Z,19.40
2023-03-31T18:37:16.218Z,19.42
2023-03-31T18:42:20.589Z,19.35
2023-03-31T18:47:22.790Z,19.36
2023-03-31T18:52:24.901Z,19.36
2023-03-31T18:57:27.098Z,19.44
2023-03-31T19:02:29.094Z,19.35
2023-03-31T19:07:32.506Z,19.51
2023-03-31T19:12:34.656Z,19.55
2023-03-31T19:17:37.107Z,19.45
2023-03-31T19:22:39.042Z,19.44
2023-03-31T19:27:41.774Z,19.41
2023-03-31T19:32:43.923Z,19.39
2023-03-31T19:37:47.213Z,19.41
2023-03-31T19:42:49.374Z,19.37
2023-03-31T19:47:51.545Z,19.39
2023-03-31T19:52:53.710Z,19.39
2023-03-31T19:57:56.452Z,19.38
2023-03-31T20:02:58.615Z,19.40
2023-03-31T20:08:01.119Z,19.39
2023-03-31T20:13:03.348Z,19.40
2023-03-31T20:18:05.592Z,19.38
2023-03-31T20:23:07.962Z,19.39
2023-03-31T20:28:10.235Z,19.43
2023-03-31T20:33:12.659Z,19.45
2023-03-31T20:38:15.354Z,19.45
2023-03-31T20:43:17.299Z,19.45
2023-03-31T20:48:19.687Z,19.42
2023-03-31T20:53:21.897Z,19.39
2023-03-31T20:58:24.344Z,19.40
2023-03-31T21:03:26.463Z,19.52
2023-03-31T21:08:28.641Z,19.43
2023-03-31T21:13:32.249Z,19.63
2023-03-31T21:18:35.328Z,19.52
2023-03-31T21:23:37.508Z,19.48
2023-03-31T21:28:39.538Z,19.45
2023-03-31T21:33:43.221Z,19.45
2023-03-31T21:38:45.932Z,19.44
2023-03-31T21:43:49.090Z,19.42
2023-03-31T21:48:51.166Z,19.40
2023-03-31T21:53:55.866Z,19.40
2023-03-31T21:58:57.950Z,19.38
2023-03-31T22:04:00.914Z,19.38
2023-03-31T22:09:02.980Z,19.42
2023-03-31T22:14:05.038Z,19.40
2023-03-31T22:19:07.787Z,19.40
2023-03-31T22:24:12.042Z,19.41
2023-03-31T22:29:15.983Z,19.42
2023-03-31T22:34:19.947Z,19.43
2023-03-31T22:39:22.065Z,19.37
2023-03-31T22:44:24.040Z,19.37
2023-03-31T22:49:26.231Z,19.36
2023-03-31T22:54:28.393Z,19.39
2023-03-31T22:59:30.554Z,19.40
2023-03-31T23:04:32.646Z,19.40
2023-03-31T23:09:34.920Z,19.40
2023-03-31T23:14:36.982Z,19.39
2023-03-31T23:19:39.144Z,19.37
2023-03-31T23:24:42.044Z,19.36
2023-03-31T23:29:44.521Z,19.37
2023-03-31T23:34:46.738Z,19.39
2023-03-31T23:39:48.694Z,19.37
2023-03-31T23:44:50.972Z,19.39
2023-03-31T23:49:53.860Z,19.37
2023-03-31T23:54:55.975Z,19.39
2023-03-31T23:59:58.184Z,19.39
